Scott Air Force Base, Illinois
Current Conditions -  °F | °C
As of 4:58 PM on Wednesday 22 Oct 2014 (Local Time) from KBLV Reporting Station
Clear Clear  
Wind Chill: 63°   Ceiling: Unl
Heat Index: 63°   Visibility: 10mi
Dew Point: 42°   Wind: 5mph
Humidity: 45%   Direction: 50°NE
Pressure: 30.22"   Gusts: NA
Location:  38.5432°N, 89.859°W
Report Text: KBLV 222158Z 05004KT 10SM CLR 17/05 A3022 RMK AO2A SLP237 T01730053
Loading
Personal Weather Stations






























Interactive Weather Map
Tropical Storm Tracking
New forecast layout! Learn more

10-Day Weather Forecast

Advertisements
Track Severe Weather on mobile